Time;durP1;ratioP1;P1;durP2;ratioP2;P2;SDS_P1;SDS_P2;PMS_P1;PMS_P2;Temp;Humidity;BMP_temperature;BMP_pressure;BME280_temperature;BME280_humidity;BME280_pressure;Samples;Min_cycle;Max_cycle;Signal;HPM_P1;HPM_P2
2022/03/06 00:00:40;;;;;;;0.60;0.60;;;-0.20;71.40;;;;;;5037701;28;20514;-82
2022/03/06 00:03:07;;;;;;;0.30;0.30;;;-0.30;72.60;;;;;;5036945;28;20422;-82
2022/03/06 00:05:36;;;;;;;1.67;0.60;;;-0.40;71.70;;;;;;5037430;28;20423;-82
2022/03/06 00:08:03;;;;;;;0.30;0.30;;;-0.40;72.80;;;;;;5036525;28;20494;-82
2022/03/06 00:10:31;;;;;;;0.30;0.30;;;-0.40;72.50;;;;;;5037417;28;20439;-82
2022/03/06 00:12:58;;;;;;;0.30;0.30;;;-0.40;72.20;;;;;;5037421;28;20439;-82
2022/03/06 00:15:26;;;;;;;1.23;1.23;;;-0.30;72.10;;;;;;5037205;28;20473;-81
2022/03/06 00:17:53;;;;;;;0.30;0.30;;;-0.40;72.60;;;;;;5036284;28;20438;-82
2022/03/06 00:20:21;;;;;;;0.30;0.30;;;-0.50;73.20;;;;;;5036243;28;20505;-82
2022/03/06 00:22:49;;;;;;;0.40;0.40;;;-0.50;73.50;;;;;;5035822;28;20462;-81
2022/03/06 00:25:16;;;;;;;0.50;0.50;;;-0.50;73.40;;;;;;5036347;28;20534;-82
2022/03/06 00:27:43;;;;;;;0.87;0.87;;;-0.60;73.50;;;;;;5035685;28;20438;-82
2022/03/06 00:30:11;;;;;;;0.30;0.30;;;-0.60;73.70;;;;;;5035959;28;20456;-82
2022/03/06 00:32:38;;;;;;;0.30;0.30;;;-0.60;74.20;;;;;;5035856;28;20447;-82
2022/03/06 00:35:06;;;;;;;0.30;0.30;;;-0.60;74.50;;;;;;5036199;28;20481;-82
2022/03/06 00:37:33;;;;;;;0.87;0.87;;;-0.60;73.80;;;;;;5035426;28;20451;-82
2022/03/06 00:40:01;;;;;;;1.23;0.43;;;-0.60;74.50;;;;;;5035435;28;20973;-82
2022/03/06 00:42:28;;;;;;;0.30;0.30;;;-0.60;75.50;;;;;;5037232;28;20416;-81
2022/03/06 00:44:55;;;;;;;0.30;0.20;;;-0.60;75.50;;;;;;5035509;28;20816;-82
2022/03/06 00:47:22;;;;;;;0.30;0.30;;;-0.60;75.70;;;;;;5035614;28;20453;-82
2022/03/06 00:49:49;;;;;;;0.70;0.70;;;-0.60;76.50;;;;;;5035376;28;20474;-82
2022/03/06 00:52:16;;;;;;;0.30;0.30;;;-0.60;77.30;;;;;;5035474;28;20446;-82
2022/03/06 00:54:42;;;;;;;0.30;0.30;;;-0.60;77.00;;;;;;5035578;28;20482;-82
2022/03/06 00:57:11;;;;;;;0.60;0.60;;;-0.50;75.70;;;;;;5035409;28;20461;-82
2022/03/06 00:59:37;;;;;;;1.27;1.27;;;-0.60;76.80;;;;;;5034991;28;20820;-82
2022/03/06 01:02:06;;;;;;;1.17;1.03;;;-0.60;76.80;;;;;;5034937;28;20458;-82
2022/03/06 01:04:34;;;;;;;0.30;0.30;;;-0.60;76.90;;;;;;5035047;28;20443;-82
2022/03/06 01:07:02;;;;;;;0.30;0.30;;;-0.60;77.80;;;;;;5035609;28;20514;-82
2022/03/06 01:09:29;;;;;;;0.30;0.30;;;-0.60;77.00;;;;;;5034991;28;20475;-82
2022/03/06 01:11:56;;;;;;;0.53;0.53;;;-0.60;76.70;;;;;;5034794;28;20935;-81
2022/03/06 01:14:25;;;;;;;0.70;0.70;;;-0.60;76.90;;;;;;5038876;28;20441;-85
2022/03/06 01:16:52;;;;;;;1.17;0.97;;;-0.60;76.70;;;;;;5042689;28;20490;-84
2022/03/06 01:19:19;;;;;;;0.30;0.30;;;-0.60;77.00;;;;;;5043122;28;21016;-83
2022/03/06 01:21:46;;;;;;;0.80;0.80;;;-0.60;77.80;;;;;;5039704;28;20450;-82
2022/03/06 01:24:13;;;;;;;0.67;0.67;;;-0.70;78.30;;;;;;5037350;28;20453;-82
2022/03/06 01:26:40;;;;;;;0.30;0.30;;;-0.70;78.60;;;;;;5036643;28;20454;-82
2022/03/06 01:29:07;;;;;;;0.30;0.30;;;-0.80;78.60;;;;;;5036470;28;20471;-83
2022/03/06 01:31:37;;;;;;;0.30;0.20;;;-0.80;78.20;;;;;;5037057;28;20820;-81
2022/03/06 01:34:04;;;;;;;0.30;0.20;;;-0.90;79.00;;;;;;5035695;28;20455;-83
2022/03/06 01:36:31;;;;;;;2.10;2.00;;;-0.90;79.10;;;;;;5037268;28;20478;-82
2022/03/06 01:38:59;;;;;;;0.40;0.40;;;-0.90;79.00;;;;;;5036634;28;20470;-83
2022/03/06 01:41:26;;;;;;;0.30;0.30;;;-0.90;80.10;;;;;;5036887;28;20417;-82
2022/03/06 01:43:53;;;;;;;0.30;0.30;;;-0.90;79.20;;;;;;5036386;28;20440;-82
2022/03/06 01:46:20;;;;;;;0.33;0.30;;;-0.90;80.40;;;;;;5035683;28;20457;-82
2022/03/06 01:48:48;;;;;;;0.70;0.70;;;-1.00;80.10;;;;;;5035633;28;20549;-82
2022/03/06 01:51:15;;;;;;;0.30;0.30;;;-1.00;80.10;;;;;;5035117;28;20439;-82
2022/03/06 01:53:43;;;;;;;0.30;0.20;;;-0.90;81.90;;;;;;5036788;28;20467;-82
2022/03/06 01:56:11;;;;;;;0.30;0.20;;;-1.00;80.60;;;;;;5036208;28;20490;-81
2022/03/06 01:58:38;;;;;;;0.63;0.63;;;-1.00;81.60;;;;;;5036785;28;20470;-82
2022/03/06 02:01:05;;;;;;;0.40;0.40;;;-1.00;81.10;;;;;;5036200;28;20455;-81
2022/03/06 02:03:32;;;;;;;0.30;0.20;;;-1.00;81.50;;;;;;5037566;28;20941;-81
2022/03/06 02:06:01;;;;;;;1.03;1.03;;;-1.00;81.90;;;;;;5036833;28;21017;-82
2022/03/06 02:08:28;;;;;;;0.30;0.20;;;-1.00;82.80;;;;;;5037331;28;20565;-82
2022/03/06 02:10:56;;;;;;;0.30;0.30;;;-1.00;82.10;;;;;;5037521;28;20479;-82
2022/03/06 02:13:24;;;;;;;0.30;0.30;;;-0.90;82.10;;;;;;5038412;28;20478;-82
2022/03/06 02:15:53;;;;;;;0.30;0.30;;;-0.90;82.50;;;;;;5040380;28;20549;-82
2022/03/06 02:18:21;;;;;;;0.30;0.30;;;-0.80;82.00;;;;;;5039755;28;20977;-81
2022/03/06 02:20:48;;;;;;;0.30;0.27;;;-0.80;82.30;;;;;;5039122;28;20439;-81
2022/03/06 02:23:17;;;;;;;0.30;0.30;;;-0.90;82.80;;;;;;5038252;28;20455;-82
2022/03/06 02:25:44;;;;;;;1.23;0.70;;;-0.90;83.50;;;;;;5036588;28;20817;-82
2022/03/06 02:28:11;;;;;;;0.30;0.30;;;-0.90;83.80;;;;;;5036813;28;20458;-82
2022/03/06 02:30:40;;;;;;;0.30;0.30;;;-0.90;84.40;;;;;;5038533;28;20447;-82
2022/03/06 02:33:09;;;;;;;0.60;0.60;;;-0.90;84.00;;;;;;5037277;28;20455;-81
2022/03/06 02:35:37;;;;;;;0.30;0.30;;;-0.90;85.10;;;;;;5037814;28;21005;-83
2022/03/06 02:38:05;;;;;;;0.30;0.30;;;-1.00;84.90;;;;;;5037863;28;20458;-81
2022/03/06 02:40:38;;;;;;;0.30;0.27;;;-1.10;85.60;;;;;;5037430;28;20455;-82
2022/03/06 02:43:06;;;;;;;0.70;0.70;;;-1.10;87.00;;;;;;5038775;28;20443;-82
2022/03/06 02:45:34;;;;;;;0.77;0.77;;;-1.10;87.80;;;;;;5040447;28;20437;-81
2022/03/06 02:48:02;;;;;;;0.43;0.43;;;-1.10;88.10;;;;;;5041945;28;20506;-82
2022/03/06 02:50:31;;;;;;;0.50;0.50;;;-1.20;88.60;;;;;;5041456;28;20461;-81
2022/03/06 02:53:00;;;;;;;0.30;0.20;;;-1.20;87.80;;;;;;5042592;28;20435;-82
2022/03/06 02:55:28;;;;;;;0.30;0.30;;;-1.30;89.30;;;;;;5043913;28;20552;-82
2022/03/06 02:57:57;;;;;;;0.43;0.43;;;-1.30;89.50;;;;;;5043136;28;20965;-81
2022/03/06 03:00:27;;;;;;;0.50;0.50;;;-1.40;90.00;;;;;;5043454;28;20433;-82
2022/03/06 03:02:55;;;;;;;0.70;0.70;;;-1.40;90.60;;;;;;5045267;28;20457;-82
2022/03/06 03:05:23;;;;;;;0.50;0.50;;;-1.40;90.80;;;;;;5045420;28;20447;-82
2022/03/06 03:20:13;;;;;;;0.30;0.20;;;-1.30;92.70;;;;;;5170266;22;20535;-81
2022/03/06 03:22:40;;;;;;;1.50;0.73;;;-1.30;92.60;;;;;;5053302;28;20474;-81
2022/03/06 03:25:07;;;;;;;0.30;0.30;;;-1.30;93.40;;;;;;5052562;28;20445;-82
2022/03/06 03:27:35;;;;;;;0.57;0.57;;;-1.40;93.40;;;;;;5052905;28;20429;-81
2022/03/06 03:30:01;;;;;;;0.40;0.40;;;-1.40;93.70;;;;;;5054471;28;20462;-81
2022/03/06 03:32:28;;;;;;;0.30;0.30;;;-1.50;94.30;;;;;;5053154;28;20453;-82
2022/03/06 03:34:55;;;;;;;0.30;0.30;;;-1.50;94.80;;;;;;5054290;28;20449;-82
2022/03/06 03:37:23;;;;;;;0.30;0.30;;;-1.50;95.10;;;;;;5055478;28;20537;-82
2022/03/06 03:39:50;;;;;;;0.50;0.50;;;-1.50;95.60;;;;;;5054313;28;20942;-81
2022/03/06 03:42:17;;;;;;;0.30;0.20;;;-1.50;95.30;;;;;;5055297;28;20536;-81
2022/03/06 03:44:44;;;;;;;0.60;0.60;;;-1.60;95.40;;;;;;5056422;28;20442;-82
2022/03/06 03:47:11;;;;;;;0.30;0.30;;;-1.60;95.60;;;;;;5056843;28;20442;-82
2022/03/06 03:49:38;;;;;;;0.30;0.30;;;-1.60;97.30;;;;;;5058611;28;20506;-81
2022/03/06 03:52:05;;;;;;;0.70;0.70;;;-1.60;97.80;;;;;;5058114;28;20477;-81
2022/03/06 03:54:33;;;;;;;0.90;0.53;;;-1.60;97.30;;;;;;5057202;28;20828;-81
2022/03/06 03:57:00;;;;;;;0.40;0.40;;;-1.70;98.10;;;;;;5056478;28;20490;-82
2022/03/06 03:59:27;;;;;;;0.33;0.33;;;-1.60;98.20;;;;;;5058329;28;20455;-82
2022/03/06 04:01:54;;;;;;;0.30;0.30;;;-1.60;98.20;;;;;;5058641;28;20503;-81
2022/03/06 04:04:21;;;;;;;0.30;0.20;;;-1.60;98.20;;;;;;5058912;28;20428;-81
2022/03/06 04:06:48;;;;;;;0.40;0.40;;;-1.70;98.10;;;;;;5058836;28;20431;-81
2022/03/06 04:09:15;;;;;;;0.63;0.63;;;-1.70;98.30;;;;;;5059128;28;20478;-81
2022/03/06 04:11:43;;;;;;;0.30;0.30;;;-1.80;98.50;;;;;;5059649;28;20431;-81
2022/03/06 04:14:10;;;;;;;0.40;0.40;;;-1.80;99.80;;;;;;5058918;28;20473;-81
2022/03/06 04:16:37;;;;;;;0.30;0.30;;;-1.80;99.90;;;;;;5059560;28;20522;-81
2022/03/06 04:19:04;;;;;;;0.30;0.30;;;-1.80;99.90;;;;;;5059849;28;20497;-81
2022/03/06 04:21:31;;;;;;;0.30;0.30;;;-1.80;99.90;;;;;;5059690;28;20428;-82
2022/03/06 04:23:57;;;;;;;0.30;0.30;;;-1.80;99.90;;;;;;5059809;28;20516;-81
2022/03/06 04:26:24;;;;;;;1.10;1.10;;;-1.90;99.90;;;;;;5059899;28;20475;-81
2022/03/06 04:34:04;;;;;;;0.60;0.50;;;-1.90;99.90;;;;;;6067331;22;20405;-80
2022/03/06 04:36:31;;;;;;;0.30;0.30;;;-2.00;99.90;;;;;;5144488;22;20449;-81
2022/03/06 04:38:58;;;;;;;1.33;1.23;;;-1.90;99.90;;;;;;5059136;28;20494;-82
2022/03/06 04:41:25;;;;;;;0.43;0.43;;;-1.90;99.90;;;;;;5059495;28;20492;-81
2022/03/06 04:46:28;;;;;;;0.30;0.30;;;-1.90;99.90;;;;;;6078883;22;20393;-85
2022/03/06 04:48:54;;;;;;;1.53;1.43;;;-1.90;99.90;;;;;;5059152;28;20526;-81
2022/03/06 04:51:23;;;;;;;0.33;0.33;;;-2.00;99.90;;;;;;5059755;28;20462;-81
2022/03/06 04:53:50;;;;;;;0.30;0.20;;;-2.00;99.90;;;;;;5115882;22;20545;-81
2022/03/06 04:56:16;;;;;;;0.33;0.33;;;-2.00;99.90;;;;;;5059904;28;20463;-81
2022/03/06 04:58:43;;;;;;;0.30;0.30;;;-2.00;99.90;;;;;;5059969;28;20436;-81
2022/03/06 05:01:10;;;;;;;0.40;0.40;;;-2.10;99.90;;;;;;5060166;28;20425;-82
2022/03/06 05:03:37;;;;;;;0.50;0.50;;;-2.00;99.90;;;;;;5059844;28;20554;-81
2022/03/06 05:06:04;;;;;;;0.30;0.30;;;-2.00;99.90;;;;;;5059989;28;20442;-80
2022/03/06 05:08:33;;;;;;;0.30;0.30;;;-2.10;99.90;;;;;;5059532;28;20489;-81
2022/03/06 05:10:59;;;;;;;0.37;0.37;;;-2.10;99.90;;;;;;5059577;28;20426;-81
2022/03/06 05:13:27;;;;;;;0.43;0.43;;;-2.10;99.90;;;;;;5120336;22;20550;-81
2022/03/06 05:15:54;;;;;;;0.63;0.63;;;-2.10;99.90;;;;;;5059797;28;20434;-81
2022/03/06 05:18:21;;;;;;;0.30;0.30;;;-2.10;99.90;;;;;;5121145;22;20476;-80
2022/03/06 05:23:23;;;;;;;0.30;0.30;;;-2.20;99.90;;;;;;5712471;22;20473;-81
2022/03/06 05:25:54;;;;;;;1.43;1.43;;;-2.20;99.90;;;;;;5059335;28;20461;-80
2022/03/06 05:28:21;;;;;;;0.30;0.30;;;-2.20;99.90;;;;;;5059620;28;20421;-81
2022/03/06 05:30:48;;;;;;;2.47;2.37;;;-2.20;99.90;;;;;;5059652;28;20493;-81
2022/03/06 05:33:15;;;;;;;0.30;0.30;;;-2.20;99.90;;;;;;5059472;28;20438;-81
2022/03/06 05:35:42;;;;;;;0.30;0.20;;;-2.20;99.90;;;;;;5059453;28;20442;-81
2022/03/06 05:38:08;;;;;;;0.50;0.50;;;-2.20;99.90;;;;;;5056701;28;20477;-81
2022/03/06 05:40:35;;;;;;;0.63;0.63;;;-2.20;99.90;;;;;;5057607;28;20400;-80
2022/03/06 05:43:04;;;;;;;2.77;1.13;;;-2.20;99.90;;;;;;5059628;28;20518;-81
2022/03/06 05:45:31;;;;;;;2.40;2.30;;;-2.20;99.90;;;;;;5059635;28;20476;-81
2022/03/06 05:47:57;;;;;;;0.40;0.40;;;-2.20;99.90;;;;;;5058993;28;20427;-81
2022/03/06 05:50:25;;;;;;;0.30;0.30;;;-2.20;99.90;;;;;;5059128;28;20435;-81
2022/03/06 05:52:52;;;;;;;0.30;0.30;;;-2.30;99.90;;;;;;5059381;28;20506;-81
2022/03/06 05:55:19;;;;;;;0.40;0.40;;;-2.20;99.90;;;;;;5059296;28;20511;-81
2022/03/06 06:01:10;;;;;;;0.70;0.70;;;-2.30;99.90;;;;;;5059718;28;20365;-81
2022/03/06 06:06:12;;;;;;;0.40;0.40;;;-2.30;99.90;;;;;;5072604;22;20473;-81
2022/03/06 06:08:40;;;;;;;0.87;0.83;;;-2.40;99.90;;;;;;5059116;28;20488;-79
2022/03/06 06:11:06;;;;;;;0.40;0.30;;;-2.30;99.90;;;;;;5186854;22;20448;-80
2022/03/06 06:13:34;;;;;;;0.30;0.30;;;-2.40;99.90;;;;;;5270320;22;20510;-80
2022/03/06 06:16:01;;;;;;;0.30;0.30;;;-2.30;99.90;;;;;;5059046;28;20500;-82
2022/03/06 06:18:31;;;;;;;0.30;0.30;;;-2.30;99.90;;;;;;5059110;28;20474;-84
2022/03/06 06:20:58;;;;;;;0.37;0.37;;;-2.20;99.90;;;;;;5058636;28;20511;-81
2022/03/06 06:23:25;;;;;;;0.77;0.77;;;-2.10;99.90;;;;;;5059006;28;20502;-83
2022/03/06 06:25:51;;;;;;;0.40;0.40;;;-2.00;99.90;;;;;;5058032;28;20447;-82
2022/03/06 06:28:18;;;;;;;0.30;0.30;;;-1.90;99.90;;;;;;5057801;28;20522;-82
2022/03/06 06:30:45;;;;;;;1.97;1.87;;;-1.80;99.90;;;;;;5056129;28;20506;-82
2022/03/06 06:33:12;;;;;;;0.30;0.30;;;-1.80;99.90;;;;;;5055451;28;20502;-83
2022/03/06 06:35:40;;;;;;;0.93;0.93;;;-1.80;99.90;;;;;;5054874;28;20506;-81
2022/03/06 06:38:07;;;;;;;0.40;0.40;;;-1.70;99.90;;;;;;5053217;28;20510;-82
2022/03/06 06:40:35;;;;;;;0.30;0.30;;;-1.70;99.90;;;;;;5052166;28;20501;-82
2022/03/06 06:43:02;;;;;;;0.30;0.30;;;-1.70;99.90;;;;;;5051274;28;20435;-82
2022/03/06 06:45:30;;;;;;;0.30;0.20;;;-1.50;99.90;;;;;;5049682;28;20477;-82
2022/03/06 06:47:56;;;;;;;1.10;0.73;;;-1.50;99.90;;;;;;5047531;28;20435;-82
2022/03/06 06:50:23;;;;;;;0.30;0.30;;;-1.40;99.90;;;;;;5047268;28;20449;-82
2022/03/06 06:52:52;;;;;;;0.30;0.30;;;-1.40;99.90;;;;;;5046861;28;20502;-82
2022/03/06 06:55:18;;;;;;;0.40;0.40;;;-1.30;99.90;;;;;;5046308;28;20434;-82
2022/03/06 06:57:45;;;;;;;0.30;0.30;;;-1.30;99.90;;;;;;5045786;28;20502;-82
2022/03/06 07:00:13;;;;;;;0.30;0.30;;;-1.20;99.90;;;;;;5045630;28;20457;-82
2022/03/06 10:06:15;;;;;;;0.30;0.30;;;12.10;47.10;;;;;;5031718;28;20442;-80
2022/03/06 10:08:41;;;;;;;0.43;0.43;;;11.70;46.30;;;;;;5033568;28;20462;-82
2022/03/06 10:11:10;;;;;;;0.47;0.47;;;11.30;46.50;;;;;;5033624;28;20443;-82
2022/03/06 10:13:39;;;;;;;0.50;0.50;;;10.60;48.20;;;;;;5033732;28;20431;-81
2022/03/06 10:16:11;;;;;;;0.97;0.73;;;10.70;48.00;;;;;;5034222;28;20446;-82
2022/03/06 10:18:40;;;;;;;0.60;0.60;;;11.10;47.40;;;;;;5033482;28;20477;-83
2022/03/06 10:21:30;;;;;;;0.90;0.80;;;11.00;46.40;;;;;;5033675;28;21009;-81
2022/03/06 10:23:58;;;;;;;0.77;0.60;;;10.50;46.20;;;;;;5033196;28;20454;-81
2022/03/06 10:26:26;;;;;;;1.57;0.53;;;10.30;47.40;;;;;;5033366;28;20418;-83
2022/03/06 10:28:57;;;;;;;0.37;0.30;;;10.40;46.60;;;;;;5033358;28;20489;-83
2022/03/06 10:31:25;;;;;;;0.67;0.53;;;10.90;47.10;;;;;;5033157;28;20407;-81
2022/03/06 10:34:05;;;;;;;0.40;0.40;;;11.70;44.70;;;;;;5033427;28;20431;-81
2022/03/06 10:36:38;;;;;;;0.50;0.40;;;12.10;43.80;;;;;;5033001;28;20432;-82
2022/03/06 10:39:11;;;;;;;1.23;1.13;;;12.50;43.10;;;;;;5032941;28;20990;-80
2022/03/06 10:41:39;;;;;;;0.40;0.30;;;12.30;43.40;;;;;;5033094;28;20414;-81
2022/03/06 10:44:08;;;;;;;0.60;0.40;;;12.00;43.10;;;;;;5033053;28;20892;-80
2022/03/06 10:46:36;;;;;;;0.60;0.57;;;11.40;44.40;;;;;;5033226;28;20431;-83
2022/03/06 10:49:08;;;;;;;0.67;0.67;;;11.70;44.10;;;;;;5032945;28;20866;-82
2022/03/06 10:51:41;;;;;;;0.60;0.43;;;12.30;43.60;;;;;;5033851;28;20535;-81
2022/03/06 10:54:08;;;;;;;1.23;0.50;;;13.10;43.10;;;;;;5033297;28;20438;-81
2022/03/06 10:56:35;;;;;;;2.73;0.70;;;13.90;42.20;;;;;;5033092;28;20451;-80
2022/03/06 10:59:04;;;;;;;0.67;0.50;;;14.90;40.20;;;;;;5032853;28;20459;-79
2022/03/06 11:01:32;;;;;;;3.43;1.37;;;15.80;38.90;;;;;;5033137;28;20431;-79
2022/03/06 11:04:01;;;;;;;0.60;0.40;;;16.20;38.00;;;;;;5033207;28;20437;-79
2022/03/06 11:06:29;;;;;;;1.23;0.60;;;15.80;37.80;;;;;;5033833;28;20501;-79
2022/03/06 11:08:57;;;;;;;2.40;0.67;;;15.90;36.90;;;;;;5036862;28;20481;-79
2022/03/06 11:11:24;;;;;;;0.70;0.50;;;15.10;38.60;;;;;;5036653;28;20418;-79
2022/03/06 11:13:55;;;;;;;0.97;0.67;;;14.90;38.80;;;;;;5036900;28;20431;-80
2022/03/06 11:16:22;;;;;;;1.53;0.80;;;14.20;38.80;;;;;;5037037;28;20423;-80
2022/03/06 11:18:50;;;;;;;1.23;0.53;;;12.40;39.70;;;;;;5036279;28;20501;-82
2022/03/06 11:21:17;;;;;;;0.70;0.70;;;10.90;41.20;;;;;;5036521;28;20411;-79
2022/03/06 11:23:46;;;;;;;0.57;0.57;;;9.80;44.20;;;;;;5036384;28;20435;-80
2022/03/06 11:26:48;;;;;;;1.03;0.60;;;8.90;46.20;;;;;;5036661;28;20438;-82
2022/03/06 11:29:40;;;;;;;2.67;1.33;;;8.20;47.70;;;;;;4952576;28;20528;-84
2022/03/06 11:32:08;;;;;;;0.73;0.73;;;7.20;49.10;;;;;;5036562;28;20423;-85
2022/03/06 11:34:37;;;;;;;0.57;0.57;;;7.00;49.50;;;;;;5036190;28;20427;-83
2022/03/06 11:37:05;;;;;;;0.30;0.20;;;6.90;49.80;;;;;;5036373;28;20485;-83
2022/03/06 11:39:50;;;;;;;0.63;0.63;;;6.80;49.90;;;;;;5036094;28;20970;-85
2022/03/06 11:42:55;;;;;;;0.40;0.40;;;6.70;50.90;;;;;;5036379;28;20439;-82
2022/03/06 11:45:47;;;;;;;1.80;0.60;;;6.70;50.40;;;;;;5013033;28;20453;-82
2022/03/06 11:48:25;;;;;;;0.40;0.40;;;6.50;50.60;;;;;;5035811;28;20469;-81
2022/03/06 11:51:19;;;;;;;0.40;0.40;;;6.20;51.10;;;;;;5035909;28;20438;-82
2022/03/06 11:53:48;;;;;;;0.30;0.30;;;6.30;51.80;;;;;;5036159;28;20796;-85
2022/03/06 11:56:53;;;;;;;3.40;0.60;;;6.30;51.50;;;;;;5036774;28;20435;-84
2022/03/06 11:59:32;;;;;;;0.60;0.60;;;6.40;51.50;;;;;;5036315;28;20462;-86
2022/03/06 12:02:03;;;;;;;0.30;0.23;;;6.60;50.60;;;;;;5036099;28;20469;-85
2022/03/06 12:04:32;;;;;;;0.60;0.40;;;6.70;50.80;;;;;;5035920;28;21030;-85
2022/03/06 12:07:01;;;;;;;0.60;0.40;;;6.50;51.10;;;;;;5035784;28;20466;-86
2022/03/06 12:09:29;;;;;;;0.40;0.30;;;6.60;51.50;;;;;;5035736;28;21013;-87
2022/03/06 12:11:58;;;;;;;1.03;0.50;;;6.60;51.10;;;;;;5036374;28;20434;-89
2022/03/06 12:14:28;;;;;;;1.80;1.70;;;6.80;51.60;;;;;;5035782;28;20415;-86
2022/03/06 12:17:35;;;;;;;0.40;0.40;;;6.90;51.50;;;;;;5036027;28;20435;-87
2022/03/06 12:20:27;;;;;;;0.43;0.43;;;7.10;50.50;;;;;;5035296;28;20451;-89
2022/03/06 12:23:02;;;;;;;0.40;0.30;;;7.00;50.10;;;;;;5035927;28;20522;-86
2022/03/06 12:25:31;;;;;;;0.77;0.77;;;6.70;50.10;;;;;;5036365;28;20449;-89
2022/03/06 12:28:18;;;;;;;0.60;0.40;;;6.40;50.50;;;;;;5035854;28;20470;-85
2022/03/06 12:30:45;;;;;;;1.40;1.30;;;6.30;51.10;;;;;;5035403;28;20489;-88
2022/03/06 12:33:33;;;;;;;0.50;0.50;;;6.30;51.40;;;;;;5036094;28;20466;-87
2022/03/06 12:36:23;;;;;;;1.97;0.80;;;6.10;51.40;;;;;;5035907;28;20530;-87
2022/03/06 12:38:57;;;;;;;2.10;0.70;;;6.00;51.10;;;;;;5036049;28;20482;-87
2022/03/06 12:41:23;;;;;;;0.43;0.43;;;5.90;50.90;;;;;;5035900;28;20412;-87
2022/03/06 12:43:57;;;;;;;0.40;0.30;;;6.00;51.10;;;;;;5036038;28;20914;-88
2022/03/06 12:46:24;;;;;;;0.40;0.40;;;5.90;51.30;;;;;;5037298;28;20415;-89
2022/03/06 12:48:51;;;;;;;0.50;0.50;;;5.70;51.10;;;;;;5036168;28;20477;-88
2022/03/06 12:51:38;;;;;;;0.70;0.40;;;5.50;51.40;;;;;;5036337;28;20458;-87
2022/03/06 12:54:08;;;;;;;0.80;0.47;;;5.30;52.10;;;;;;5036557;28;20410;-88
2022/03/06 12:56:38;;;;;;;0.30;0.30;;;5.30;52.50;;;;;;5034824;28;20960;-88
2022/03/06 12:59:15;;;;;;;0.73;0.73;;;5.40;52.60;;;;;;5034469;28;20590;-87
2022/03/06 13:01:42;;;;;;;0.67;0.67;;;5.50;52.60;;;;;;5034805;28;20934;-85
2022/03/06 13:04:10;;;;;;;0.77;0.40;;;5.60;52.40;;;;;;5034818;28;20423;-88
2022/03/06 13:06:39;;;;;;;1.60;1.50;;;5.70;51.80;;;;;;5034670;28;20467;-87
2022/03/06 13:09:06;;;;;;;0.40;0.40;;;5.70;51.40;;;;;;5034744;28;20828;-88
2022/03/06 13:11:38;;;;;;;0.47;0.47;;;5.70;51.80;;;;;;5034793;28;20431;-88
2022/03/06 13:14:09;;;;;;;0.30;0.30;;;5.60;51.80;;;;;;5034730;28;20447;-88
2022/03/06 13:16:36;;;;;;;0.40;0.30;;;5.50;51.90;;;;;;5034742;28;20435;-88
2022/03/06 13:19:05;;;;;;;1.13;0.60;;;5.60;51.60;;;;;;5034576;28;20573;-88
2022/03/06 13:21:35;;;;;;;0.63;0.63;;;5.80;51.40;;;;;;5034573;28;20434;-89
2022/03/06 13:24:06;;;;;;;0.93;0.40;;;6.10;51.00;;;;;;5034565;28;20481;-87
2022/03/06 13:26:34;;;;;;;0.37;0.37;;;6.30;50.80;;;;;;5035233;28;20450;-84
2022/03/06 13:29:00;;;;;;;0.30;0.20;;;6.40;51.00;;;;;;5033946;28;20466;-85
2022/03/06 13:31:27;;;;;;;0.30;0.30;;;6.40;51.30;;;;;;5034026;28;20850;-86
2022/03/06 13:34:06;;;;;;;1.50;0.73;;;6.40;50.20;;;;;;5034397;28;20493;-88
2022/03/06 13:36:33;;;;;;;0.30;0.30;;;6.30;50.20;;;;;;5034074;28;20930;-88
2022/03/06 13:39:04;;;;;;;0.40;0.30;;;6.20;51.30;;;;;;5034321;28;20475;-89
2022/03/06 13:41:31;;;;;;;0.37;0.33;;;6.20;51.00;;;;;;5034189;28;20435;-88
2022/03/06 13:43:58;;;;;;;1.27;1.27;;;6.10;51.10;;;;;;5034622;28;20894;-86
2022/03/06 13:46:26;;;;;;;0.30;0.30;;;6.00;51.10;;;;;;5036468;28;20411;-88
2022/03/06 13:49:08;;;;;;;1.00;0.77;;;6.00;50.60;;;;;;5034055;28;20505;-87
2022/03/06 13:51:34;;;;;;;0.30;0.30;;;6.00;50.60;;;;;;5033853;28;20431;-89
2022/03/06 13:54:05;;;;;;;1.83;1.50;;;5.80;50.70;;;;;;5033737;28;20988;-85
2022/03/06 13:56:34;;;;;;;0.40;0.40;;;5.70;51.30;;;;;;5033925;28;20445;-86
2022/03/06 13:59:01;;;;;;;0.30;0.30;;;5.70;51.00;;;;;;5033469;28;20536;-85
2022/03/06 14:01:28;;;;;;;0.87;0.87;;;5.70;51.10;;;;;;5033845;28;20446;-83
2022/03/06 14:04:03;;;;;;;0.60;0.60;;;5.70;51.40;;;;;;5033837;28;20411;-85
2022/03/06 14:06:41;;;;;;;0.30;0.20;;;5.80;50.60;;;;;;5033485;28;20485;-82
2022/03/06 14:09:24;;;;;;;0.33;0.33;;;5.80;50.30;;;;;;5033837;28;20476;-82
2022/03/06 14:11:52;;;;;;;2.47;0.77;;;6.00;50.90;;;;;;5033394;28;20777;-80
2022/03/06 14:14:18;;;;;;;0.97;0.97;;;6.00;50.10;;;;;;5033747;28;20450;-83
2022/03/06 14:16:45;;;;;;;0.40;0.40;;;6.10;50.30;;;;;;5033230;28;20458;-85
2022/03/06 14:19:17;;;;;;;0.40;0.40;;;6.10;50.90;;;;;;5032952;28;20497;-85
2022/03/06 14:21:45;;;;;;;0.30;0.30;;;6.00;50.60;;;;;;5033064;28;20454;-84
2022/03/06 14:24:13;;;;;;;0.40;0.33;;;5.80;50.70;;;;;;5033513;28;20455;-87
2022/03/06 14:26:44;;;;;;;1.13;1.00;;;5.80;51.10;;;;;;5033412;28;20454;-87
2022/03/06 14:29:13;;;;;;;0.30;0.30;;;5.70;51.00;;;;;;5033359;28;20466;-87
2022/03/06 14:31:51;;;;;;;0.70;0.70;;;5.50;51.70;;;;;;5033392;28;20500;-82
2022/03/06 14:34:19;;;;;;;0.30;0.30;;;5.60;52.40;;;;;;5033249;28;20972;-87
2022/03/06 14:36:46;;;;;;;1.50;0.60;;;5.60;51.90;;;;;;5033151;28;20450;-87
2022/03/06 14:39:13;;;;;;;0.50;0.40;;;5.70;51.80;;;;;;5033494;28;20482;-87
2022/03/06 14:41:42;;;;;;;1.30;0.87;;;5.50;51.70;;;;;;5034597;28;20438;-87
2022/03/06 14:47:31;;;;;;;0.40;0.40;;;5.10;52.10;;;;;;4996261;28;20416;-84
2022/03/06 14:49:58;;;;;;;1.43;0.50;;;5.10;52.90;;;;;;5025432;28;20477;-87
2022/03/06 14:52:25;;;;;;;0.60;0.60;;;5.20;52.70;;;;;;5037076;28;20947;-87
2022/03/06 14:54:52;;;;;;;0.40;0.40;;;5.30;53.00;;;;;;5037129;28;20445;-88
2022/03/06 14:57:20;;;;;;;0.30;0.30;;;5.30;52.10;;;;;;5037275;28;20441;-87
2022/03/06 14:59:46;;;;;;;1.07;1.07;;;5.30;52.20;;;;;;5036926;28;20494;-88
2022/03/06 15:02:13;;;;;;;0.33;0.30;;;5.20;52.30;;;;;;5037159;28;20450;-81
2022/03/06 15:04:40;;;;;;;0.50;0.50;;;5.20;52.50;;;;;;5037383;28;20446;-83
2022/03/06 15:07:07;;;;;;;0.40;0.30;;;5.20;52.40;;;;;;5036646;28;20477;-81
2022/03/06 15:09:33;;;;;;;0.80;0.60;;;5.20;52.10;;;;;;5037137;28;20467;-83
2022/03/06 15:12:01;;;;;;;0.47;0.47;;;5.10;53.20;;;;;;5037032;28;20458;-86
2022/03/06 15:14:29;;;;;;;0.87;0.87;;;5.20;53.00;;;;;;5036944;28;20496;-88
2022/03/06 15:16:56;;;;;;;0.40;0.40;;;5.30;52.40;;;;;;5036529;28;20941;-86
2022/03/06 15:19:23;;;;;;;0.83;0.83;;;5.40;52.50;;;;;;5036744;28;20490;-85
2022/03/06 15:21:50;;;;;;;0.40;0.33;;;5.40;52.90;;;;;;5036805;28;20435;-86
2022/03/06 15:24:17;;;;;;;0.37;0.33;;;5.40;52.60;;;;;;5036961;28;20458;-86
2022/03/06 15:26:44;;;;;;;0.50;0.50;;;5.40;52.40;;;;;;5036943;28;20443;-88
2022/03/06 15:33:08;;;;;;;2.00;1.23;;;5.30;52.70;;;;;;4975682;28;20414;-83
2022/03/06 15:35:36;;;;;;;0.70;0.70;;;5.20;52.50;;;;;;4975599;28;20445;-82
2022/03/06 15:38:03;;;;;;;0.30;0.30;;;5.10;53.00;;;;;;5023192;28;20453;-81
2022/03/06 15:40:30;;;;;;;0.83;0.77;;;5.00;52.60;;;;;;5036422;28;20435;-79
2022/03/06 15:42:57;;;;;;;0.40;0.30;;;4.80;53.00;;;;;;5036400;28;20446;-84
2022/03/06 15:45:23;;;;;;;1.73;0.80;;;4.80;53.00;;;;;;5036123;28;20411;-85
2022/03/06 15:47:50;;;;;;;0.30;0.30;;;4.70;53.10;;;;;;5036212;28;20438;-82
2022/03/06 15:50:17;;;;;;;0.97;0.97;;;4.60;53.20;;;;;;5036339;28;20451;-85
2022/03/06 15:52:45;;;;;;;1.80;1.70;;;4.60;53.90;;;;;;5034937;28;20945;-86
2022/03/06 15:55:12;;;;;;;0.70;0.70;;;4.60;54.60;;;;;;5035849;28;20906;-84
2022/03/06 15:57:39;;;;;;;0.30;0.30;;;4.60;54.40;;;;;;5036208;28;20798;-85
2022/03/06 16:00:07;;;;;;;1.57;0.30;;;4.60;54.20;;;;;;5035988;28;20486;-86
2022/03/06 16:02:33;;;;;;;0.50;0.50;;;4.60;54.50;;;;;;5036107;28;20439;-86
2022/03/06 16:05:00;;;;;;;0.30;0.30;;;4.60;55.40;;;;;;5036032;28;20435;-86
2022/03/06 16:08:17;;;;;;;0.30;0.30;;;4.60;55.60;;;;;;5033812;28;20466;-80
2022/03/06 16:10:45;;;;;;;0.77;0.77;;;4.70;55.50;;;;;;5036085;28;20435;-85
2022/03/06 16:14:07;;;;;;;0.60;0.60;;;4.60;55.60;;;;;;5036070;28;20427;-80
2022/03/06 16:16:35;;;;;;;0.70;0.70;;;4.50;55.70;;;;;;5035599;28;20481;-85
2022/03/06 16:22:19;;;;;;;0.30;0.30;;;4.20;55.90;;;;;;5014780;28;20412;-84
2022/03/06 16:24:47;;;;;;;0.30;0.30;;;4.10;56.10;;;;;;5035486;28;20446;-84
2022/03/06 16:27:14;;;;;;;0.70;0.70;;;4.00;56.20;;;;;;5035604;28;20450;-83
2022/03/06 16:29:43;;;;;;;2.10;0.50;;;4.00;56.90;;;;;;5035385;28;20481;-86
2022/03/06 16:32:12;;;;;;;0.50;0.50;;;4.00;56.60;;;;;;5035326;28;20934;-83
2022/03/06 16:34:39;;;;;;;2.37;1.40;;;4.00;56.70;;;;;;5035534;28;20451;-84
2022/03/06 16:37:06;;;;;;;0.50;0.50;;;3.80;56.70;;;;;;5035409;28;20454;-80
2022/03/06 16:39:33;;;;;;;0.50;0.50;;;3.60;57.00;;;;;;5035054;28;20986;-83
2022/03/06 16:42:03;;;;;;;4.93;1.67;;;3.60;57.30;;;;;;5035385;28;20442;-85
2022/03/06 16:44:30;;;;;;;0.30;0.30;;;3.60;57.60;;;;;;5035603;28;20941;-85